NFSM7: N Fork Spring River nr Purcell, MO

                                SHEF ID:       NFSM7     N Fork Spring River nr Purcell, MO
STATION TYPE:

STAGE RIV-FLOW
ft cfs
Ccp-Rev Ccp-Rev
(America/Chicago)
04/22 00:00 5.10 550
04/22 01:00 5.09 546
04/22 02:00 5.06 536
04/22 03:00 5.03 528
04/22 04:00 5.02 524
04/22 05:00 4.99 514
04/22 06:00 4.96 503
04/22 07:00 4.94 496
04/22 08:00 4.92 490
04/22 09:00 4.89 480
04/22 10:00 4.87 473
04/22 11:00 4.85 466
04/22 12:00 4.82 457
04/22 13:00 4.81 453
04/22 14:00 4.78 444
04/22 15:00 4.76 437
04/22 16:00 4.74 431
04/22 17:00 4.72 424
04/22 18:00 4.70 418
04/22 19:00 4.68 412
04/22 20:00 4.66 406
04/22 21:00 4.64 400
04/22 22:00 4.62 394
04/22 23:00 ---- ----
Data processed at Thu 23Apr2026 04:45 GMT

NOTICE: If you are parsing this page

Please convert to using our Data API. Starting early 2026 we will be migrating to: https://water.usace.army.mil with modern pages rendered in JavaScript. When this migration completes you will no longer be able to scrape this page! CWMSDataAPI (CDA)

Timeseries IDs (TSIDs)

TSIDs used from left to right in the data table
PURS.Stage.Inst.1Hour.0.Ccp-Rev
PURS.Flow.Inst.1Hour.0.Ccp-Rev

                            

All information presented herein is the property of the government of the United States of America and may be revised or deleted at any time without prior notice. Dissemination of this information without the expressed written consent of the Public Affairs Office, Tulsa District U.S. Army Corps of Engineers is strictly prohibited. These data are gathered electronically and, as presented, have NOT undergone any form of quality control. These data are NOT guaranteed to be valid or correct.